Wetterdaten: Woche 12.07.10 - 18.07.10 (KW28)
Datum Zeit Temp. A. Feuchte A. Luftdruck Regen Wind Richtung Taupunkt Windchill Windben
12.07.2010 00:00 22,0 C 73 % 1015,8 hPa 0,0 l/m 0,0 km/h N 16,8 C 22,0 C 0,0 km/h
12.07.2010 01:00 21,0 C 75 % 1015,6 hPa 0,0 l/m 0,0 km/h N 16,4 C 21,0 C 0,0 km/h
12.07.2010 02:00 20,1 C 78 % 1015,4 hPa 0,0 l/m 0,0 km/h N 16,1 C 20,1 C 0,0 km/h
12.07.2010 03:00 19,8 C 79 % 1015,3 hPa 0,0 l/m 0,0 km/h N 16,1 C 19,8 C 0,4 km/h
12.07.2010 04:00 19,8 C 78 % 1015,3 hPa 0,0 l/m 0,1 km/h N 15,9 C 19,8 C 3,2 km/h
12.07.2010 05:00 19,4 C 79 % 1015,3 hPa 0,0 l/m 0,0 km/h N 15,6 C 19,4 C 0,4 km/h
12.07.2010 06:00 19,3 C 82 % 1015,1 hPa 0,0 l/m 0,0 km/h N 16,1 C 19,3 C 0,8 km/h
12.07.2010 07:00 20,4 C 81 % 1015,2 hPa 0,0 l/m 0,0 km/h N 17,1 C 20,4 C 1,2 km/h
12.07.2010 08:00 22,5 C 76 % 1015,0 hPa 0,0 l/m 0,0 km/h N 18,0 C 22,5 C 0,8 km/h
12.07.2010 09:00 25,2 C 68 % 1014,7 hPa 0,0 l/m 0,1 km/h N 18,8 C 25,2 C 1,6 km/h
12.07.2010 10:00 27,0 C 60 % 1014,4 hPa 0,0 l/m 0,2 km/h N 18,4 C 27,0 C 2,4 km/h
12.07.2010 11:00 30,0 C 51 % 1013,9 hPa 0,0 l/m 1,1 km/h NO 18,8 C 30,0 C 4,4 km/h
12.07.2010 12:00 32,7 C 43 % 1013,4 hPa 0,0 l/m 1,2 km/h O 18,3 C 32,7 C 6,0 km/h
12.07.2010 13:00 32,8 C 43 % 1013,1 hPa 0,0 l/m 1,4 km/h O 18,5 C 32,8 C 5,2 km/h
12.07.2010 14:00 32,9 C 43 % 1012,8 hPa 0,0 l/m 1,2 km/h O 18,6 C 32,9 C 4,4 km/h
12.07.2010 15:00 32,1 C 44 % 1012,2 hPa 0,0 l/m 1,5 km/h O 18,1 C 32,1 C 4,0 km/h
12.07.2010 16:00 32,7 C 41 % 1011,3 hPa 0,0 l/m 1,9 km/h O-NO 17,7 C 32,7 C 4,8 km/h
12.07.2010 17:00 33,5 C 39 % 1010,4 hPa 0,0 l/m 1,1 km/h O 17,6 C 33,5 C 4,8 km/h
12.07.2010 18:00 32,3 C 40 % 1010,1 hPa 0,0 l/m 1,1 km/h O 16,8 C 32,3 C 4,0 km/h
12.07.2010 19:00 31,5 C 42 % 1009,8 hPa 0,0 l/m 0,8 km/h O 17,1 C 31,5 C 3,2 km/h
12.07.2010 20:00 30,4 C 46 % 1009,6 hPa 0,0 l/m 0,0 km/h N 17,4 C 30,4 C 0,8 km/h
12.07.2010 21:00 28,3 C 55 % 1009,8 hPa 0,0 l/m 0,0 km/h N 18,2 C 28,3 C 0,8 km/h
12.07.2010 22:00 25,6 C 67 % 1009,8 hPa 0,0 l/m 0,0 km/h N 18,8 C 25,6 C 0,4 km/h
12.07.2010 23:00 23,7 C 72 % 1009,5 hPa 0,0 l/m 0,0 km/h N 18,2 C 23,7 C 0,0 km/h
13.07.2010 00:00 22,5 C 73 % 1009,5 hPa 0,0 l/m 0,0 km/h N 17,4 C 22,5 C 0,4 km/h
13.07.2010 01:00 21,7 C 74 % 1009,4 hPa 0,0 l/m 0,0 km/h N 16,8 C 21,7 C 0,0 km/h
13.07.2010 02:00 21,0 C 76 % 1009,4 hPa 0,0 l/m 0,0 km/h N 16,7 C 21,0 C 0,4 km/h
13.07.2010 03:00 20,3 C 78 % 1009,5 hPa 0,0 l/m 0,1 km/h S-SW 16,3 C 20,3 C 1,2 km/h
13.07.2010 04:00 22,5 C 73 % 1009,8 hPa 0,0 l/m 6,3 km/h W 17,3 C 22,3 C 28,6 km/h
13.07.2010 05:00 23,3 C 65 % 1009,5 hPa 0,0 l/m 6,7 km/h W 16,4 C 23,1 C 27,3 km/h
13.07.2010 06:00 23,4 C 65 % 1009,7 hPa 0,0 l/m 5,6 km/h SW 16,3 C 23,4 C 24,1 km/h
13.07.2010 07:00 24,0 C 62 % 1009,7 hPa 0,0 l/m 3,8 km/h O-NO 16,2 C 24,0 C 17,3 km/h
13.07.2010 08:00 25,1 C 59 % 1009,9 hPa 0,0 l/m 4,7 km/h S-SW 16,4 C 25,1 C 19,7 km/h
13.07.2010 09:00 26,1 C 56 % 1010,2 hPa 0,0 l/m 3,7 km/h N-NO 16,6 C 26,1 C 17,7 km/h
13.07.2010 10:00 27,3 C 54 % 1010,7 hPa 0,0 l/m 2,8 km/h S-SO 17,0 C 27,3 C 16,9 km/h
13.07.2010 11:00 29,4 C 50 % 1010,6 hPa 0,0 l/m 6,1 km/h W-NW 17,8 C 29,4 C 19,3 km/h
13.07.2010 12:00 31,2 C 46 % 1010,4 hPa 0,0 l/m 6,1 km/h W-SW 18,1 C 31,1 C 19,7 km/h
13.07.2010 13:00 31,8 C 44 % 1010,0 hPa 0,0 l/m 5,2 km/h NW 17,8 C 31,8 C 17,3 km/h
13.07.2010 14:00 32,3 C 43 % 1009,9 hPa 0,0 l/m 5,8 km/h NO 18,0 C 32,3 C 15,7 km/h
13.07.2010 15:00 33,5 C 40 % 1009,6 hPa 0,0 l/m 3,6 km/h NW 17,8 C 33,5 C 12,5 km/h
13.07.2010 16:00 33,8 C 39 % 1009,2 hPa 0,0 l/m 4,1 km/h N-NO 17,8 C 33,8 C 11,3 km/h
13.07.2010 17:00 32,8 C 42 % 1008,8 hPa 0,0 l/m 3,4 km/h N-NW 18,2 C 32,8 C 8,8 km/h
13.07.2010 18:00 31,3 C 45 % 1009,0 hPa 0,0 l/m 1,4 km/h N-NW 17,9 C 31,3 C 5,6 km/h
13.07.2010 19:00 30,8 C 47 % 1009,1 hPa 0,0 l/m 0,8 km/h W-NW 18,2 C 30,8 C 6,0 km/h
13.07.2010 20:00 29,9 C 50 % 1009,4 hPa 0,0 l/m 0,2 km/h N 18,4 C 29,9 C 1,6 km/h
13.07.2010 21:00 27,5 C 58 % 1010,0 hPa 0,0 l/m 0,0 km/h N 18,3 C 27,5 C 0,4 km/h
13.07.2010 22:00 25,0 C 65 % 1010,4 hPa 0,0 l/m 0,0 km/h N 17,9 C 25,0 C 0,8 km/h
13.07.2010 23:00 23,3 C 69 % 1010,3 hPa 0,0 l/m 0,0 km/h N 17,3 C 23,3 C 0,8 km/h
14.07.2010 00:00 22,4 C 72 % 1010,7 hPa 0,0 l/m 0,0 km/h N 17,1 C 22,4 C 0,4 km/h
14.07.2010 01:00 22,2 C 72 % 1011,1 hPa 0,0 l/m 0,6 km/h SW 16,7 C 22,2 C 5,2 km/h
14.07.2010 02:00 22,0 C 71 % 1011,2 hPa 0,0 l/m 0,1 km/h N 16,3 C 22,0 C 2,0 km/h
14.07.2010 03:00 21,2 C 72 % 1011,0 hPa 0,0 l/m 0,1 km/h N 16,0 C 21,2 C 3,2 km/h
14.07.2010 04:00 20,8 C 74 % 1011,0 hPa 0,0 l/m 0,1 km/h N 15,8 C 20,8 C 3,2 km/h
14.07.2010 05:00 20,4 C 74 % 1011,3 hPa 0,0 l/m 0,1 km/h N 15,6 C 20,4 C 1,6 km/h
14.07.2010 06:00 20,4 C 75 % 1011,4 hPa 0,0 l/m 0,2 km/h N 15,9 C 20,4 C 2,8 km/h
14.07.2010 07:00 21,4 C 76 % 1011,5 hPa 0,0 l/m 0,1 km/h N 16,9 C 21,4 C 3,2 km/h
14.07.2010 08:00 23,2 C 73 % 1011,4 hPa 0,0 l/m 0,1 km/h N 18,1 C 23,2 C 1,2 km/h
14.07.2010 09:00 25,7 C 67 % 1011,4 hPa 0,0 l/m 0,2 km/h N 19,0 C 25,7 C 2,4 km/h
14.07.2010 10:00 27,9 C 58 % 1011,4 hPa 0,0 l/m 0,7 km/h W 18,8 C 27,9 C 3,6 km/h
14.07.2010 11:00 30,6 C 49 % 1011,1 hPa 0,0 l/m 0,9 km/h NO 18,6 C 30,6 C 3,6 km/h
14.07.2010 12:00 32,9 C 46 % 1010,8 hPa 0,0 l/m 0,9 km/h N-NO 19,5 C 32,9 C 4,0 km/h
14.07.2010 13:00 33,4 C 42 % 1010,5 hPa 0,0 l/m 1,3 km/h O 18,5 C 33,4 C 4,8 km/h
14.07.2010 14:00 33,3 C 41 % 1010,1 hPa 0,0 l/m 1,4 km/h O-NO 18,3 C 33,3 C 5,6 km/h
14.07.2010 15:00 35,0 C 37 % 1009,3 hPa 0,0 l/m 1,5 km/h O-NO 18,2 C 35,0 C 5,2 km/h
14.07.2010 16:00 35,5 C 36 % 1008,8 hPa 0,0 l/m 1,2 km/h O 17,9 C 35,5 C 6,4 km/h
14.07.2010 17:00 33,9 C 39 % 1008,5 hPa 0,0 l/m 1,3 km/h O-SO 17,8 C 33,9 C 4,8 km/h
14.07.2010 18:00 32,7 C 40 % 1008,2 hPa 0,0 l/m 1,5 km/h O 17,3 C 32,7 C 4,8 km/h
14.07.2010 19:00 32,0 C 41 % 1008,0 hPa 0,0 l/m 0,4 km/h N 17,0 C 32,0 C 2,0 km/h
14.07.2010 20:00 31,0 C 47 % 1007,9 hPa 0,0 l/m 0,0 km/h N 18,2 C 31,0 C 0,8 km/h
14.07.2010 21:00 28,6 C 54 % 1007,8 hPa 0,0 l/m 0,0 km/h N 18,4 C 28,6 C 0,0 km/h
14.07.2010 22:00 26,0 C 65 % 1008,0 hPa 0,0 l/m 0,0 km/h N 18,7 C 26,0 C 0,4 km/h
14.07.2010 23:00 24,8 C 70 % 1008,1 hPa 0,0 l/m 0,0 km/h N 18,8 C 24,8 C 0,4 km/h
15.07.2010 00:00 24,0 C 73 % 1007,8 hPa 0,0 l/m 0,0 km/h N 18,9 C 24,0 C 0,0 km/h
15.07.2010 01:00 23,3 C 76 % 1007,9 hPa 0,0 l/m 0,0 km/h N 18,8 C 23,3 C 0,0 km/h
15.07.2010 02:00 22,4 C 78 % 1007,8 hPa 0,0 l/m 0,0 km/h N 18,4 C 22,4 C 0,0 km/h
15.07.2010 03:00 21,7 C 81 % 1007,6 hPa 0,0 l/m 0,0 km/h N 18,2 C 21,7 C 0,0 km/h
15.07.2010 04:00 21,2 C 82 % 1007,5 hPa 0,0 l/m 0,0 km/h N 18,1 C 21,2 C 0,0 km/h
15.07.2010 05:00 20,8 C 84 % 1008,2 hPa 0,0 l/m 0,0 km/h N 17,9 C 20,8 C 0,0 km/h
15.07.2010 06:00 21,4 C 85 % 1009,6 hPa 0,0 l/m 1,3 km/h N-NW 18,8 C 21,4 C 4,8 km/h
15.07.2010 07:00 22,8 C 78 % 1010,3 hPa 0,0 l/m 1,6 km/h N-NW 18,8 C 22,8 C 5,6 km/h
15.07.2010 08:00 24,9 C 70 % 1010,5 hPa 0,0 l/m 2,4 km/h NO 19,0 C 24,9 C 8,9 km/h
15.07.2010 09:00 27,2 C 61 % 1011,2 hPa 0,0 l/m 3,2 km/h N-NW 19,0 C 27,2 C 11,7 km/h
15.07.2010 10:00 28,5 C 57 % 1011,6 hPa 0,0 l/m 7,0 km/h NW 19,1 C 28,4 C 14,9 km/h
15.07.2010 11:00 30,5 C 53 % 1011,8 hPa 0,0 l/m 5,5 km/h N-NW 19,8 C 30,4 C 13,7 km/h
15.07.2010 12:00 32,4 C 52 % 1011,7 hPa 0,0 l/m 4,0 km/h NW 21,1 C 32,4 C 12,9 km/h
15.07.2010 13:00 34,2 C 48 % 1011,6 hPa 0,0 l/m 3,2 km/h NW 21,4 C 34,2 C 10,5 km/h
15.07.2010 14:00 35,0 C 45 % 1011,3 hPa 0,0 l/m 3,2 km/h N-NO 21,0 C 35,0 C 8,9 km/h
15.07.2010 15:00 35,8 C 43 % 1011,4 hPa 0,0 l/m 1,1 km/h N-NW 21,3 C 35,8 C 5,3 km/h
15.07.2010 16:00 32,8 C 49 % 1011,6 hPa 0,0 l/m 0,1 km/h N 20,6 C 32,8 C 1,6 km/h
15.07.2010 17:00 31,9 C 52 % 1011,6 hPa 0,0 l/m 0,2 km/h N 20,8 C 31,9 C 2,8 km/h
15.07.2010 18:00 32,8 C 50 % 1011,0 hPa 0,0 l/m 0,4 km/h N 21,0 C 32,8 C 3,2 km/h
15.07.2010 19:00 32,1 C 52 % 1011,0 hPa 0,0 l/m 0,1 km/h N 20,9 C 32,1 C 1,6 km/h
15.07.2010 20:00 31,1 C 57 % 1011,3 hPa 0,0 l/m 0,0 km/h N 21,4 C 31,1 C 0,0 km/h
15.07.2010 21:00 29,2 C 64 % 1012,0 hPa 0,0 l/m 0,0 km/h N 21,5 C 29,2 C 0,0 km/h
15.07.2010 22:00 26,7 C 66 % 1013,7 hPa 3,1 l/m 6,6 km/h NW 19,7 C 26,3 C 18,1 km/h
15.07.2010 23:00 22,8 C 83 % 1015,6 hPa 31,5 l/m 3,9 km/h N-NO 19,8 C 22,6 C 14,1 km/h
16.07.2010 00:00 21,5 C 87 % 1016,2 hPa 9,6 l/m 0,9 km/h W-SW 19,2 C 21,5 C 6,8 km/h
16.07.2010 01:00 20,9 C 88 % 1014,8 hPa 0,0 l/m 1,0 km/h S 18,8 C 20,9 C 5,6 km/h
16.07.2010 02:00 20,7 C 89 % 1015,0 hPa 0,0 l/m 0,5 km/h N-NO 18,7 C 20,7 C 4,4 km/h
16.07.2010 03:00 20,8 C 89 % 1015,2 hPa 0,0 l/m 0,6 km/h N 18,9 C 20,8 C 3,2 km/h
16.07.2010 04:00 20,4 C 89 % 1016,0 hPa 0,0 l/m 0,1 km/h N 18,5 C 20,4 C 2,4 km/h
16.07.2010 05:00 20,1 C 90 % 1016,3 hPa 0,0 l/m 0,0 km/h N 18,3 C 20,1 C 1,6 km/h
16.07.2010 06:00 19,9 C 90 % 1016,1 hPa 0,3 l/m 0,0 km/h N 18,2 C 19,9 C 0,4 km/h
16.07.2010 07:00 20,8 C 90 % 1016,3 hPa 0,0 l/m 0,1 km/h N 19,1 C 20,8 C 2,4 km/h
16.07.2010 08:00 21,8 C 90 % 1016,5 hPa 0,0 l/m 0,1 km/h N 20,1 C 21,8 C 2,0 km/h
16.07.2010 09:00 23,4 C 89 % 1016,9 hPa 0,0 l/m 0,2 km/h N 21,4 C 23,4 C 2,8 km/h
16.07.2010 10:00 25,3 C 82 % 1016,9 hPa 0,0 l/m 0,6 km/h NO 21,8 C 25,3 C 4,0 km/h
16.07.2010 11:00 28,0 C 69 % 1016,6 hPa 0,0 l/m 1,0 km/h SO 21,8 C 28,0 C 7,6 km/h
16.07.2010 12:00 29,9 C 61 % 1016,3 hPa 0,0 l/m 1,5 km/h NO 21,6 C 29,9 C 6,8 km/h
16.07.2010 13:00 30,6 C 57 % 1016,1 hPa 0,0 l/m 1,5 km/h O 21,1 C 30,6 C 4,4 km/h
16.07.2010 14:00 31,4 C 56 % 1015,8 hPa 0,0 l/m 1,8 km/h O-SO 21,5 C 31,4 C 9,7 km/h
16.07.2010 18:00 32,4 C 48 % 1013,5 hPa 0,0 l/m 1,5 km/h N 19,9 C 32,4 C 6,4 km/h
16.07.2010 19:00 31,8 C 52 % 1013,6 hPa 0,0 l/m 0,4 km/h N 20,7 C 31,8 C 6,8 km/h
16.07.2010 20:00 30,4 C 60 % 1014,1 hPa 0,0 l/m 0,3 km/h N 21,6 C 30,4 C 2,4 km/h
16.07.2010 21:00 28,7 C 65 % 1014,5 hPa 0,0 l/m 0,1 km/h N 21,5 C 28,7 C 1,6 km/h
16.07.2010 22:00 27,5 C 70 % 1014,8 hPa 0,0 l/m 0,2 km/h N 21,5 C 27,5 C 2,4 km/h
16.07.2010 23:00 26,1 C 74 % 1015,0 hPa 0,0 l/m 0,0 km/h N 21,2 C 26,1 C 1,2 km/h
17.07.2010 00:00 24,9 C 79 % 1015,0 hPa 0,0 l/m 0,0 km/h N 21,0 C 24,9 C 0,0 km/h
17.07.2010 01:00 24,0 C 82 % 1014,4 hPa 0,0 l/m 0,0 km/h N 20,8 C 24,0 C 0,0 km/h
17.07.2010 02:00 23,4 C 85 % 1014,1 hPa 0,0 l/m 0,0 km/h N 20,7 C 23,4 C 0,8 km/h
17.07.2010 03:00 23,3 C 85 % 1014,0 hPa 0,0 l/m 0,0 km/h N 20,7 C 23,3 C 1,6 km/h
17.07.2010 04:00 23,1 C 84 % 1014,1 hPa 0,0 l/m 0,0 km/h N 20,3 C 23,1 C 0,0 km/h
17.07.2010 05:00 22,6 C 86 % 1014,1 hPa 0,0 l/m 0,0 km/h N 20,1 C 22,6 C 0,0 km/h
17.07.2010 06:00 22,8 C 87 % 1013,8 hPa 0,0 l/m 0,0 km/h N 20,5 C 22,8 C 0,0 km/h
17.07.2010 07:00 23,7 C 87 % 1014,3 hPa 0,0 l/m 0,5 km/h W-SW 21,3 C 23,7 C 6,0 km/h
17.07.2010 08:00 25,4 C 82 % 1014,6 hPa 0,0 l/m 0,3 km/h N 22,1 C 25,4 C 2,4 km/h
17.07.2010 09:00 27,0 C 76 % 1014,5 hPa 0,0 l/m 0,2 km/h N 22,3 C 27,0 C 2,0 km/h
17.07.2010 10:00 28,2 C 73 % 1014,4 hPa 0,0 l/m 0,2 km/h N 22,7 C 28,2 C 2,8 km/h
17.07.2010 11:00 30,7 C 64 % 1014,1 hPa 0,0 l/m 2,4 km/h N-NW 22,9 C 30,7 C 7,7 km/h
17.07.2010 12:00 29,6 C 68 % 1014,4 hPa 0,8 l/m 2,3 km/h S 23,1 C 29,6 C 6,4 km/h
17.07.2010 13:00 26,6 C 78 % 1015,0 hPa 0,5 l/m 0,4 km/h N 22,3 C 26,6 C 4,4 km/h
17.07.2010 14:00 26,2 C 82 % 1014,0 hPa 0,0 l/m 0,8 km/h W 22,9 C 26,2 C 6,4 km/h
17.07.2010 15:00 27,1 C 81 % 1013,4 hPa 0,0 l/m 1,1 km/h S-SW 23,6 C 27,1 C 4,8 km/h
17.07.2010 16:00 28,3 C 75 % 1012,9 hPa 0,0 l/m 0,8 km/h W-SW 23,5 C 28,3 C 6,4 km/h
17.07.2010 17:00 28,3 C 75 % 1012,4 hPa 0,0 l/m 1,9 km/h S 23,5 C 28,3 C 8,4 km/h
17.07.2010 18:00 28,1 C 73 % 1011,4 hPa 0,0 l/m 1,1 km/h S-SO 22,7 C 28,1 C 6,0 km/h
17.07.2010 19:00 28,6 C 68 % 1012,0 hPa 0,0 l/m 2,6 km/h NW 22,1 C 28,6 C 10,0 km/h
17.07.2010 20:00 27,1 C 67 % 1012,5 hPa 0,0 l/m 3,4 km/h NW 20,4 C 27,1 C 13,7 km/h
17.07.2010 21:00 25,0 C 72 % 1013,6 hPa 0,3 l/m 4,2 km/h N-NW 19,5 C 25,0 C 16,5 km/h
17.07.2010 22:00 22,6 C 81 % 1014,7 hPa 3,6 l/m 2,0 km/h SW 19,2 C 22,6 C 8,9 km/h
17.07.2010 23:00 21,0 C 86 % 1015,7 hPa 1,8 l/m 2,0 km/h NW 18,6 C 21,0 C 8,8 km/h
18.07.2010 00:00 20,7 C 88 % 1016,6 hPa 0,5 l/m 3,7 km/h NW 18,6 C 20,7 C 12,9 km/h
18.07.2010 01:00 20,3 C 88 % 1015,8 hPa 0,5 l/m 2,5 km/h N 18,3 C 20,3 C 9,3 km/h
18.07.2010 02:00 19,9 C 89 % 1017,2 hPa 0,5 l/m 1,3 km/h NW 18,0 C 19,9 C 9,3 km/h
18.07.2010 03:00 18,1 C 87 % 1017,0 hPa 0,5 l/m 8,6 km/h W 15,9 C 17,1 C 32,2 km/h
18.07.2010 04:00 17,5 C 84 % 1017,5 hPa 0,3 l/m 10,2 km/h SO 14,9 C 15,9 C 36,2 km/h
18.07.2010 05:00 17,7 C 80 % 1018,1 hPa 0,3 l/m 9,4 km/h S-SO 14,2 C 16,3 C 31,8 km/h
18.07.2010 06:00 17,8 C 81 % 1018,9 hPa 0,3 l/m 8,7 km/h W-SW 14,4 C 16,7 C 32,2 km/h
18.07.2010 07:00 18,4 C 77 % 1019,3 hPa 0,3 l/m 7,1 km/h NW 14,3 C 18,0 C 22,9 km/h
18.07.2010 08:00 19,0 C 74 % 1019,9 hPa 0,0 l/m 5,8 km/h N-NW 14,2 C 18,8 C 21,3 km/h
18.07.2010 09:00 19,0 C 74 % 1020,3 hPa 0,0 l/m 7,0 km/h SW 14,3 C 18,7 C 24,5 km/h
18.07.2010 10:00 20,3 C 71 % 1020,4 hPa 0,3 l/m 8,0 km/h W 14,8 C 19,6 C 26,9 km/h
18.07.2010 11:00 21,3 C 68 % 1020,9 hPa 0,0 l/m 6,9 km/h NW 15,1 C 21,1 C 22,1 km/h
18.07.2010 12:00 21,1 C 69 % 1021,5 hPa 0,3 l/m 6,7 km/h NW 15,1 C 20,8 C 19,7 km/h
18.07.2010 13:00 20,4 C 71 % 1022,3 hPa 0,0 l/m 7,8 km/h NW 14,9 C 19,8 C 22,1 km/h
18.07.2010 14:00 19,0 C 75 % 1022,8 hPa 0,0 l/m 8,9 km/h NW 14,5 C 18,0 C 24,6 km/h
18.07.2010 15:00 18,8 C 75 % 1022,8 hPa 0,0 l/m 9,9 km/h NW 14,2 C 17,4 C 24,9 km/h
18.07.2010 16:00 18,1 C 77 % 1023,1 hPa 0,0 l/m 7,2 km/h S-SW 14,1 C 17,7 C 20,5 km/h
18.07.2010 17:00 18,0 C 78 % 1023,3 hPa 0,0 l/m 5,1 km/h N-NW 14,0 C 18,0 C 16,5 km/h
18.07.2010 18:00 17,7 C 78 % 1023,3 hPa 0,3 l/m 5,1 km/h W-NW 13,7 C 17,7 C 14,9 km/h
18.07.2010 19:00 17,3 C 76 % 1023,2 hPa 0,0 l/m 5,9 km/h S 13,0 C 17,2 C 21,7 km/h
18.07.2010 20:00 17,2 C 76 % 1023,7 hPa 0,0 l/m 4,2 km/h NW 13,0 C 17,2 C 15,3 km/h
18.07.2010 21:00 17,1 C 76 % 1024,1 hPa 0,0 l/m 4,1 km/h N-NW 12,9 C 17,1 C 13,7 km/h
18.07.2010 22:00 17,2 C 75 % 1024,5 hPa 0,0 l/m 4,7 km/h NW 12,7 C 17,2 C 12,5 km/h
18.07.2010 23:00 17,2 C 73 % 1024,4 hPa 0,0 l/m 4,7 km/h N-NW 12,4 C 17,2 C 14,1 km/h
Min-Datum _ 18.07.10 14.07.10 15.07.10 - 12.07.10 - 18.07.10 18.07.10 12.07.10
_ Min-Zeit 21:30 15:45 03:45 - 00:00 - 23:15 04:30 00:00
Minimum _ 17,0 C 35 % 1007,4 hPa - 0,0 km/h - 12,3 C 15,3 C 0,0 km/h
Max-Datum _ 15.07.10 16.07.10 18.07.10 15.07.10 18.07.10 - 17.07.10 14.07.10 18.07.10
_ Max-Zeit 15:30 05:00 22:00 23:15 15:30 - 15:30 16:15 04:45
Maximum _ 36,5 C 90 % 1024,6 hPa 31,5 l/m 12,6 km/h
NW
- 23,9 C 36,1 C 43,5 km/h
S-SW
Durchschnitt _ 25,5 C 67 % 1013,4 hPa #55,4 l/m 2,0 km/h NW 18,4 C 25,4 C 7,6 km/h